Vasiliy Bozhenko — URHP — position and weather

sailwx.info

Track history (hours):
 
Tides and Currents Weather Stations Pressure Air Temp Water Temp Dewpoint Dewpoint Depression Visibility Wind Speed Wind Dir Waves Ship Positions

Vasiliy Bozhenko

Last reported at 2016-Sep-25 09:31 UTC. Time now 2016-Sep-25 10:36 UTC.
Position N 47°52' E 035°06'.

Length 114 m; draft 2.8 m.

Type: Cargo ship. MMSI: 272085000.

Date/timePositionNaut miles runAvg speedWind from/ knotsBaromVisibWave heightAir tempDewpointWater temp
2016-Sep-25 09:31N 47°52' E 035°06'0 0.0
2016-Sep-25 07:28N 47°52' E 035°06'1 0.2
2016-Sep-25 04:33N 47°52' E 035°06'4 1.0
2016-Sep-25 00:32N 47°49' E 035°09'0 0.0
2016-Sep-24 22:29N 47°49' E 035°09'0 0.0
2016-Sep-24 21:24N 47°49' E 035°09'0 0.0
2016-Sep-24 19:32N 47°49' E 035°09'5 4.9
2016-Sep-24 18:33N 47°44' E 035°10'8 7.8
2016-Sep-24 17:32N 47°37' E 035°03'189 5.9
2016-Sep-23 09:32N 46°29' E 030°45'0 0.0
2016-Sep-23 06:20N 46°29' E 030°45'0 0.0
2016-Sep-23 04:20N 46°29' E 030°45'0 0.0
2016-Sep-23 03:30N 46°29' E 030°45'0 0.0
2016-Sep-23 02:26N 46°29' E 030°45'0 0.0
2016-Sep-23 01:05N 46°29' E 030°45'0 0.0
2016-Sep-23 00:32N 46°29' E 030°45'0 0.0
2016-Sep-22 23:23N 46°29' E 030°45'0 0.0
2016-Sep-22 20:25N 46°29' E 030°45'0 0.0
2016-Sep-22 12:29N 46°29' E 030°45'2 0.3
2016-Sep-22 04:23N 46°31' E 030°47'0 0.6
2016-Sep-22 03:33N 46°31' E 030°47'  
2016-Sep-18 00:29N 40°12' E 025°19'21 7.3
2016-Sep-17 21:33N 40°23' E 024°55'8 8.0
2016-Sep-17 20:30N 40°27' E 024°46'10 7.8
2016-Sep-17 19:16N 40°32' E 024°35'25 4.3
2016-Sep-17 13:31N 40°57' E 024°28'0 0.0
2016-Sep-17 12:31N 40°57' E 024°28'0 0.0
2016-Sep-17 10:33N 40°57' E 024°28'0 0.0
2016-Sep-17 09:32N 40°57' E 024°28'0 0.0
2016-Sep-17 08:32N 40°57' E 024°28'0 0.0
2016-Sep-17 07:33N 40°57' E 024°28'0 0.0
2016-Sep-17 05:33N 40°57' E 024°28'0 0.0
2016-Sep-17 04:33N 40°57' E 024°28'0 0.0
2016-Sep-17 00:33N 40°57' E 024°28'0 0.0
2016-Sep-16 17:33N 40°57' E 024°28'0 0.0
2016-Sep-16 15:31N 40°57' E 024°28'0 0.0
2016-Sep-16 12:33N 40°57' E 024°28'0 0.0
2016-Sep-16 09:32N 40°57' E 024°28'0 0.0
2016-Sep-16 07:32N 40°57' E 024°28'2 0.4
2016-Sep-16 03:32N 40°55' E 024°29'0 0.0
2016-Sep-16 02:32N 40°55' E 024°29'0 0.0
2016-Sep-16 00:32N 40°55' E 024°29'0 0.0
2016-Sep-15 22:32N 40°55' E 024°29'0 0.0
2016-Sep-15 21:29N 40°55' E 024°29'0 0.0
2016-Sep-15 20:33N 40°55' E 024°29'0 0.1
2016-Sep-15 18:28N 40°55' E 024°29'0 0.0
2016-Sep-15 12:33N 40°55' E 024°29'0 0.0
2016-Sep-15 11:27N 40°55' E 024°29'  
Track history (hours):
 
Tides and Currents Weather Stations Pressure Air Temp Water Temp Dewpoint Dewpoint Depression Visibility Wind Speed Wind Dir Waves Ship Positions

Vasiliy Bozhenko

Last reported at 2016-Sep-25 09:31 UTC. Time now 2016-Sep-25 10:36 UTC.
Position N 47°52' E 035°06'.

Length 114 m; draft 2.8 m.

Type: Cargo ship. MMSI: 272085000.

Date/timePositionNaut miles runAvg speedWind from/ knotsBaromVisibWave heightAir tempDewpointWater temp
2016-Sep-25 09:31N 47°52' E 035°06'0 0.0
2016-Sep-25 07:28N 47°52' E 035°06'1 0.2
2016-Sep-25 04:33N 47°52' E 035°06'4 1.0
2016-Sep-25 00:32N 47°49' E 035°09'0 0.0
2016-Sep-24 22:29N 47°49' E 035°09'0 0.0
2016-Sep-24 21:24N 47°49' E 035°09'0 0.0
2016-Sep-24 19:32N 47°49' E 035°09'5 4.9
2016-Sep-24 18:33N 47°44' E 035°10'8 7.8
2016-Sep-24 17:32N 47°37' E 035°03'189 5.9
2016-Sep-23 09:32N 46°29' E 030°45'0 0.0
2016-Sep-23 06:20N 46°29' E 030°45'0 0.0
2016-Sep-23 04:20N 46°29' E 030°45'0 0.0
2016-Sep-23 03:30N 46°29' E 030°45'0 0.0
2016-Sep-23 02:26N 46°29' E 030°45'0 0.0
2016-Sep-23 01:05N 46°29' E 030°45'0 0.0
2016-Sep-23 00:32N 46°29' E 030°45'0 0.0
2016-Sep-22 23:23N 46°29' E 030°45'0 0.0
2016-Sep-22 20:25N 46°29' E 030°45'0 0.0
2016-Sep-22 12:29N 46°29' E 030°45'2 0.3
2016-Sep-22 04:23N 46°31' E 030°47'0 0.6
2016-Sep-22 03:33N 46°31' E 030°47'  
2016-Sep-18 00:29N 40°12' E 025°19'21 7.3
2016-Sep-17 21:33N 40°23' E 024°55'8 8.0
2016-Sep-17 20:30N 40°27' E 024°46'10 7.8
2016-Sep-17 19:16N 40°32' E 024°35'25 4.3
2016-Sep-17 13:31N 40°57' E 024°28'0 0.0
2016-Sep-17 12:31N 40°57' E 024°28'0 0.0
2016-Sep-17 10:33N 40°57' E 024°28'0 0.0
2016-Sep-17 09:32N 40°57' E 024°28'0 0.0
2016-Sep-17 08:32N 40°57' E 024°28'0 0.0
2016-Sep-17 07:33N 40°57' E 024°28'0 0.0
2016-Sep-17 05:33N 40°57' E 024°28'0 0.0
2016-Sep-17 04:33N 40°57' E 024°28'0 0.0
2016-Sep-17 00:33N 40°57' E 024°28'0 0.0
2016-Sep-16 17:33N 40°57' E 024°28'0 0.0
2016-Sep-16 15:31N 40°57' E 024°28'0 0.0
2016-Sep-16 12:33N 40°57' E 024°28'0 0.0
2016-Sep-16 09:32N 40°57' E 024°28'0 0.0
2016-Sep-16 07:32N 40°57' E 024°28'2 0.4
2016-Sep-16 03:32N 40°55' E 024°29'0 0.0
2016-Sep-16 02:32N 40°55' E 024°29'0 0.0
2016-Sep-16 00:32N 40°55' E 024°29'0 0.0
2016-Sep-15 22:32N 40°55' E 024°29'0 0.0
2016-Sep-15 21:29N 40°55' E 024°29'0 0.0
2016-Sep-15 20:33N 40°55' E 024°29'0 0.1
2016-Sep-15 18:28N 40°55' E 024°29'0 0.0
2016-Sep-15 12:33N 40°55' E 024°29'0 0.0
2016-Sep-15 11:27N 40°55' E 024°29'  

Dump ship's entire track history